TimeCDT,TemperatureF,Dew PointF,Humidity,Sea Level PressureIn,VisibilityMPH,Wind Direction,Wind SpeedMPH,Gust SpeedMPH,PrecipitationIn,Events,Conditions,WindDirDegrees,DateUTC
12:54 AM,44.1,39.0,82,30.16,10.0,Calm,Calm,-,N/A,,Clear,0,2013-06-04 05:54:00
1:54 AM,39.9,37.0,89,30.15,10.0,Calm,Calm,-,N/A,,Clear,0,2013-06-04 06:54:00
2:54 AM,37.0,35.1,93,30.16,10.0,Calm,Calm,-,N/A,,Clear,0,2013-06-04 07:54:00
3:54 AM,36.0,33.1,89,30.16,10.0,Calm,Calm,-,N/A,,Clear,0,2013-06-04 08:54:00
4:23 AM,35.6,33.8,93,30.15,1.0,NNW,3.5,-,N/A,,Mist,330,2013-06-04 09:23:00
4:30 AM,33.8,33.8,100,30.15,0.5,North,3.5,-,N/A,Fog,Fog,350,2013-06-04 09:30:00
4:36 AM,35.6,33.8,93,30.15,1.5,Calm,Calm,-,N/A,,Partly Cloudy,0,2013-06-04 09:36:00
4:38 AM,35.6,33.8,93,30.15,4.0,Calm,Calm,-,N/A,,Partly Cloudy,0,2013-06-04 09:38:00
4:47 AM,35.6,33.8,93,30.15,2.5,Calm,Calm,-,N/A,,Mostly Cloudy,0,2013-06-04 09:47:00
4:50 AM,35.6,33.8,93,30.15,0.8,Calm,Calm,-,N/A,,Mist,0,2013-06-04 09:50:00
4:54 AM,36.0,34.0,93,30.18,0.2,Calm,Calm,-,N/A,Fog,Fog,0,2013-06-04 09:54:00
5:50 AM,37.4,37.4,100,30.18,1.0,Calm,Calm,-,N/A,,Mist,0,2013-06-04 10:50:00
5:54 AM,37.9,37.0,97,30.20,3.0,NW,3.5,-,N/A,,Mostly Cloudy,310,2013-06-04 10:54:00
6:07 AM,39.2,37.4,93,30.19,10.0,NW,3.5,-,N/A,,Scattered Clouds,310,2013-06-04 11:07:00
6:54 AM,43.0,39.9,89,30.22,10.0,Calm,Calm,-,N/A,,Clear,0,2013-06-04 11:54:00
7:54 AM,50.0,42.1,74,30.20,10.0,Calm,Calm,-,N/A,,Clear,0,2013-06-04 12:54:00
8:54 AM,53.1,35.1,50,30.19,10.0,SE,3.5,-,N/A,,Mostly Cloudy,130,2013-06-04 13:54:00
9:54 AM,55.0,30.9,40,30.21,10.0,SE,5.8,-,N/A,,Overcast,140,2013-06-04 14:54:00
10:54 AM,57.0,30.0,36,30.23,10.0,SE,8.1,-,N/A,,Overcast,140,2013-06-04 15:54:00
11:54 AM,57.0,33.1,40,30.25,10.0,Variable,4.6,-,N/A,,Overcast,0,2013-06-04 16:54:00
12:54 PM,60.1,33.1,36,30.24,10.0,Variable,6.9,-,N/A,,Mostly Cloudy,0,2013-06-04 17:54:00
1:54 PM,60.1,34.0,38,30.22,10.0,SSE,6.9,-,N/A,,Partly Cloudy,150,2013-06-04 18:54:00
2:54 PM,59.0,32.0,36,30.22,10.0,SSE,8.1,-,N/A,,Overcast,150,2013-06-04 19:54:00
3:54 PM,59.0,32.0,36,30.22,10.0,South,6.9,-,N/A,,Overcast,170,2013-06-04 20:54:00
4:54 PM,57.9,33.1,39,30.21,10.0,South,4.6,-,N/A,,Overcast,190,2013-06-04 21:54:00
5:54 PM,55.9,34.0,44,30.22,10.0,South,5.8,-,N/A,,Overcast,180,2013-06-04 22:54:00
6:54 PM,55.9,37.0,49,30.21,10.0,SSW,3.5,-,N/A,,Overcast,200,2013-06-04 23:54:00
7:54 PM,54.0,41.0,62,30.20,10.0,Calm,Calm,-,N/A,,Overcast,0,2013-06-05 00:54:00
8:54 PM,52.0,41.0,66,30.19,10.0,Calm,Calm,-,N/A,,Overcast,0,2013-06-05 01:54:00
9:54 PM,52.0,41.0,66,30.19,10.0,Calm,Calm,-,N/A,,Overcast,0,2013-06-05 02:54:00
10:54 PM,51.1,44.1,77,30.19,10.0,Calm,Calm,-,N/A,,Overcast,0,2013-06-05 03:54:00
11:54 PM,51.1,43.0,74,30.20,10.0,Calm,Calm,-,N/A,,Overcast,0,2013-06-05 04:54:00